sensor_id;sensor_type;location;lat;lon;timestamp;pressure;altitude;pressure_sealevel;temperature;humidity
59825;BME280;45703;50.898;6.054;2023-02-28T00:01:31;101503.03;;;-0.47;80.53
59825;BME280;45703;50.898;6.054;2023-02-28T00:03:56;101501.38;;;-0.48;80.21
59825;BME280;45703;50.898;6.054;2023-02-28T00:06:22;101506.63;;;-0.48;80.39
59825;BME280;45703;50.898;6.054;2023-02-28T00:08:49;101505.66;;;-0.47;79.94
59825;BME280;45703;50.898;6.054;2023-02-28T00:11:15;101512.81;;;-0.49;80.22
59825;BME280;45703;50.898;6.054;2023-02-28T00:13:43;101511.38;;;-0.53;80.66
59825;BME280;45703;50.898;6.054;2023-02-28T00:16:13;101515.06;;;-0.56;81.07
59825;BME280;45703;50.898;6.054;2023-02-28T00:18:40;101501.63;;;-0.62;81.10
59825;BME280;45703;50.898;6.054;2023-02-28T00:21:06;101497.44;;;-0.65;81.15
59825;BME280;45703;50.898;6.054;2023-02-28T00:23:33;101507.81;;;-0.63;81.29
59825;BME280;45703;50.898;6.054;2023-02-28T00:25:58;101501.88;;;-0.65;81.17
59825;BME280;45703;50.898;6.054;2023-02-28T00:28:24;101507.09;;;-0.65;81.33
59825;BME280;45703;50.898;6.054;2023-02-28T00:30:49;101500.44;;;-0.69;81.46
59825;BME280;45703;50.898;6.054;2023-02-28T00:33:16;101514.25;;;-0.67;81.76
59825;BME280;45703;50.898;6.054;2023-02-28T00:35:41;101503.16;;;-0.71;81.75
59825;BME280;45703;50.898;6.054;2023-02-28T00:38:07;101510.22;;;-0.71;81.85
59825;BME280;45703;50.898;6.054;2023-02-28T00:40:32;101512.84;;;-0.71;81.76
59825;BME280;45703;50.898;6.054;2023-02-28T00:42:58;101503.63;;;-0.77;81.25
59825;BME280;45703;50.898;6.054;2023-02-28T00:45:23;101507.81;;;-0.74;81.64
59825;BME280;45703;50.898;6.054;2023-02-28T00:47:49;101509.59;;;-0.75;81.17
59825;BME280;45703;50.898;6.054;2023-02-28T00:50:24;101506.97;;;-0.75;80.66
59825;BME280;45703;50.898;6.054;2023-02-28T00:52:49;101494.34;;;-0.81;80.48
59825;BME280;45703;50.898;6.054;2023-02-28T00:55:14;101490.88;;;-0.81;80.77
59825;BME280;45703;50.898;6.054;2023-02-28T00:57:40;101505.41;;;-0.77;81.31
59825;BME280;45703;50.898;6.054;2023-02-28T01:00:06;101507.22;;;-0.78;81.63
59825;BME280;45703;50.898;6.054;2023-02-28T01:02:32;101511.84;;;-0.81;81.38
59825;BME280;45703;50.898;6.054;2023-02-28T01:04:59;101513.50;;;-0.80;81.37
59825;BME280;45703;50.898;6.054;2023-02-28T01:07:25;101520.66;;;-0.82;81.29
59825;BME280;45703;50.898;6.054;2023-02-28T01:09:50;101514.00;;;-0.86;81.44
59825;BME280;45703;50.898;6.054;2023-02-28T01:12:16;101510.66;;;-0.88;81.61
59825;BME280;45703;50.898;6.054;2023-02-28T01:14:41;101523.03;;;-0.90;81.86
59825;BME280;45703;50.898;6.054;2023-02-28T01:17:07;101527.34;;;-0.89;81.62
59825;BME280;45703;50.898;6.054;2023-02-28T01:19:33;101526.63;;;-0.91;81.43
59825;BME280;45703;50.898;6.054;2023-02-28T01:22:01;101520.78;;;-0.95;80.72
59825;BME280;45703;50.898;6.054;2023-02-28T01:24:27;101524.94;;;-0.92;80.56
59825;BME280;45703;50.898;6.054;2023-02-28T01:26:53;101537.59;;;-0.86;80.77
59825;BME280;45703;50.898;6.054;2023-02-28T01:29:18;101522.00;;;-0.88;80.55
59825;BME280;45703;50.898;6.054;2023-02-28T01:31:43;101526.50;;;-0.90;81.01
59825;BME280;45703;50.898;6.054;2023-02-28T01:34:09;101524.94;;;-0.92;81.07
59825;BME280;45703;50.898;6.054;2023-02-28T01:36:34;101530.19;;;-0.92;80.84
59825;BME280;45703;50.898;6.054;2023-02-28T01:38:59;101527.00;;;-0.96;81.12
59825;BME280;45703;50.898;6.054;2023-02-28T01:41:27;101524.59;;;-0.99;81.08
59825;BME280;45703;50.898;6.054;2023-02-28T01:44:03;101520.41;;;-1.01;81.61
59825;BME280;45703;50.898;6.054;2023-02-28T01:46:34;101524.94;;;-1.03;81.82
59825;BME280;45703;50.898;6.054;2023-02-28T01:49:07;101516.59;;;-1.08;81.96
59825;BME280;45703;50.898;6.054;2023-02-28T01:51:37;101521.13;;;-1.10;82.31
59825;BME280;45703;50.898;6.054;2023-02-28T01:54:09;101514.19;;;-1.11;82.47
59825;BME280;45703;50.898;6.054;2023-02-28T01:56:43;101508.59;;;-1.18;82.25
59825;BME280;45703;50.898;6.054;2023-02-28T01:59:13;101508.59;;;-1.18;82.37
59825;BME280;45703;50.898;6.054;2023-02-28T02:01:39;101501.09;;;-1.22;82.19
59825;BME280;45703;50.898;6.054;2023-02-28T02:04:05;101498.81;;;-1.27;82.28
59825;BME280;45703;50.898;6.054;2023-02-28T02:06:36;101504.75;;;-1.25;82.50
59825;BME280;45703;50.898;6.054;2023-02-28T02:09:03;101498.19;;;-1.30;82.74
59825;BME280;45703;50.898;6.054;2023-02-28T02:11:28;101499.84;;;-1.29;82.84
59825;BME280;45703;50.898;6.054;2023-02-28T02:14:38;101506.75;;;-1.28;82.33
59825;BME280;45703;50.898;6.054;2023-02-28T02:17:50;101499.13;;;-1.31;82.89
59825;BME280;45703;50.898;6.054;2023-02-28T02:20:27;101489.84;;;-1.35;82.70
59825;BME280;45703;50.898;6.054;2023-02-28T02:28:40;101494.03;;;-1.33;81.99
59825;BME280;45703;50.898;6.054;2023-02-28T02:34:32;101491.03;;;-1.39;82.40
59825;BME280;45703;50.898;6.054;2023-02-28T02:37:22;101490.22;;;-1.40;82.75
59825;BME280;45703;50.898;6.054;2023-02-28T02:40:14;101489.72;;;-1.44;82.59
59825;BME280;45703;50.898;6.054;2023-02-28T02:45:32;101487.91;;;-1.44;82.66
59825;BME280;45703;50.898;6.054;2023-02-28T02:48:05;101491.50;;;-1.45;82.77
59825;BME280;45703;50.898;6.054;2023-02-28T02:50:35;101487.09;;;-1.44;82.63
59825;BME280;45703;50.898;6.054;2023-02-28T02:53:03;101476.72;;;-1.46;82.76
59825;BME280;45703;50.898;6.054;2023-02-28T02:55:33;101481.72;;;-1.43;83.08
59825;BME280;45703;50.898;6.054;2023-02-28T02:58:03;101489.59;;;-1.43;83.15
59825;BME280;45703;50.898;6.054;2023-02-28T03:00:37;101480.53;;;-1.39;83.27
59825;BME280;45703;50.898;6.054;2023-02-28T03:03:07;101479.81;;;-1.41;83.28
59825;BME280;45703;50.898;6.054;2023-02-28T03:05:50;101472.47;;;-1.36;83.07
59825;BME280;45703;50.898;6.054;2023-02-28T03:08:16;101477.47;;;-1.33;83.13
59825;BME280;45703;50.898;6.054;2023-02-28T03:10:48;101474.75;;;-1.32;82.75
59825;BME280;45703;50.898;6.054;2023-02-28T03:16:28;101475.13;;;-1.25;82.88
59825;BME280;45703;50.898;6.054;2023-02-28T03:30:18;101485.09;;;-1.30;82.72
59825;BME280;45703;50.898;6.054;2023-02-28T03:35:26;101482.94;;;-1.36;82.00
59825;BME280;45703;50.898;6.054;2023-02-28T03:37:59;101485.72;;;-1.27;81.99
59825;BME280;45703;50.898;6.054;2023-02-28T03:40:30;101456.03;;;-1.38;81.58
59825;BME280;45703;50.898;6.054;2023-02-28T03:43:02;101485.59;;;-1.25;81.60
59825;BME280;45703;50.898;6.054;2023-02-28T03:45:29;101486.19;;;-1.22;81.43
59825;BME280;45703;50.898;6.054;2023-02-28T03:48:12;101487.53;;;-1.16;81.44
59825;BME280;45703;50.898;6.054;2023-02-28T03:50:40;101486.81;;;-1.07;81.01
59825;BME280;45703;50.898;6.054;2023-02-28T03:53:11;101484.91;;;-1.05;81.13
59825;BME280;45703;50.898;6.054;2023-02-28T03:55:43;101478.09;;;-1.08;80.93
59825;BME280;45703;50.898;6.054;2023-02-28T04:01:01;101473.09;;;-1.11;80.76
59825;BME280;45703;50.898;6.054;2023-02-28T04:03:34;101486.19;;;-1.11;80.76
59825;BME280;45703;50.898;6.054;2023-02-28T04:06:00;101485.47;;;-1.13;82.08
59825;BME280;45703;50.898;6.054;2023-02-28T04:08:25;101484.66;;;-1.13;81.27
59825;BME280;45703;50.898;6.054;2023-02-28T04:11:15;101483.00;;;-1.14;80.76
59825;BME280;45703;50.898;6.054;2023-02-28T04:13:43;101477.75;;;-1.14;81.06
59825;BME280;45703;50.898;6.054;2023-02-28T04:16:08;101478.00;;;-1.17;81.34
59825;BME280;45703;50.898;6.054;2023-02-28T04:18:40;101465.47;;;-1.25;82.07
59825;BME280;45703;50.898;6.054;2023-02-28T04:21:06;101473.94;;;-1.21;81.53
59825;BME280;45703;50.898;6.054;2023-02-28T04:23:32;101475.13;;;-1.25;83.03
59825;BME280;45703;50.898;6.054;2023-02-28T04:25:58;101478.19;;;-1.31;84.39
59825;BME280;45703;50.898;6.054;2023-02-28T04:28:23;101472.47;;;-1.36;82.43
59825;BME280;45703;50.898;6.054;2023-02-28T04:30:57;101488.88;;;-1.34;81.89
59825;BME280;45703;50.898;6.054;2023-02-28T04:33:23;101484.38;;;-1.32;82.29
59825;BME280;45703;50.898;6.054;2023-02-28T04:35:58;101484.59;;;-1.35;81.69
59825;BME280;45703;50.898;6.054;2023-02-28T04:38:24;101486.72;;;-1.40;82.01
59825;BME280;45703;50.898;6.054;2023-02-28T04:40:49;101487.69;;;-1.41;82.35
59825;BME280;45703;50.898;6.054;2023-02-28T04:43:14;101485.31;;;-1.44;82.28
59825;BME280;45703;50.898;6.054;2023-02-28T04:45:40;101495.69;;;-1.42;84.43
59825;BME280;45703;50.898;6.054;2023-02-28T04:48:05;101496.50;;;-1.42;82.46
59825;BME280;45703;50.898;6.054;2023-02-28T04:50:30;101499.50;;;-1.36;81.94
59825;BME280;45703;50.898;6.054;2023-02-28T04:52:56;101498.56;;;-1.35;83.09
59825;BME280;45703;50.898;6.054;2023-02-28T04:55:21;101504.50;;;-1.33;82.11
59825;BME280;45703;50.898;6.054;2023-02-28T04:57:47;101502.72;;;-1.32;82.33
59825;BME280;45703;50.898;6.054;2023-02-28T05:00:13;101499.13;;;-1.31;83.10
59825;BME280;45703;50.898;6.054;2023-02-28T05:02:42;101493.09;;;-1.32;82.39
59825;BME280;45703;50.898;6.054;2023-02-28T05:05:07;101509.03;;;-1.24;82.57
59825;BME280;45703;50.898;6.054;2023-02-28T05:07:33;101510.47;;;-1.20;82.12
59825;BME280;45703;50.898;6.054;2023-02-28T05:09:58;101492.50;;;-1.24;82.27
59825;BME280;45703;50.898;6.054;2023-02-28T05:12:23;101509.66;;;-1.20;81.99
59825;BME280;45703;50.898;6.054;2023-02-28T05:14:49;101499.41;;;-1.23;81.94
59825;BME280;45703;50.898;6.054;2023-02-28T05:17:14;101500.47;;;-1.26;82.08
59825;BME280;45703;50.898;6.054;2023-02-28T05:19:39;101498.56;;;-1.24;82.20
59825;BME280;45703;50.898;6.054;2023-02-28T05:22:13;101500.38;;;-1.24;81.93
59825;BME280;45703;50.898;6.054;2023-02-28T05:24:39;101504.44;;;-1.20;81.97
59825;BME280;45703;50.898;6.054;2023-02-28T05:27:04;101508.09;;;-1.23;82.77
59825;BME280;45703;50.898;6.054;2023-02-28T05:29:30;101492.50;;;-1.24;82.11
59825;BME280;45703;50.898;6.054;2023-02-28T05:31:55;101498.81;;;-1.27;82.29
59825;BME280;45703;50.898;6.054;2023-02-28T05:34:20;101494.84;;;-1.32;82.72
59825;BME280;45703;50.898;6.054;2023-02-28T05:36:46;101507.72;;;-1.29;82.19
59825;BME280;45703;50.898;6.054;2023-02-28T05:39:11;101500.56;;;-1.38;83.12
59825;BME280;45703;50.898;6.054;2023-02-28T05:41:39;101502.34;;;-1.39;83.56
59825;BME280;45703;50.898;6.054;2023-02-28T05:44:04;101511.03;;;-1.38;82.84
59825;BME280;45703;50.898;6.054;2023-02-28T05:46:30;101505.06;;;-1.40;83.16
59825;BME280;45703;50.898;6.054;2023-02-28T05:48:55;101499.09;;;-1.42;82.59
59825;BME280;45703;50.898;6.054;2023-02-28T05:51:22;101500.78;;;-1.41;82.62
59825;BME280;45703;50.898;6.054;2023-02-28T05:53:48;101500.78;;;-1.41;82.80
59825;BME280;45703;50.898;6.054;2023-02-28T05:56:14;101508.16;;;-1.46;83.39
59825;BME280;45703;50.898;6.054;2023-02-28T05:58:39;101498.13;;;-1.52;83.18
59825;BME280;45703;50.898;6.054;2023-02-28T06:01:37;101513.84;;;-1.52;82.73
59825;BME280;45703;50.898;6.054;2023-02-28T06:04:05;101498.19;;;-1.64;84.25
59825;BME280;45703;50.898;6.054;2023-02-28T06:06:30;101497.59;;;-1.68;84.39
59825;BME280;45703;50.898;6.054;2023-02-28T06:08:56;101503.56;;;-1.66;83.29
59825;BME280;45703;50.898;6.054;2023-02-28T06:11:22;101510.97;;;-1.60;84.91
59825;BME280;45703;50.898;6.054;2023-02-28T06:13:53;101514.63;;;-1.62;84.37
59825;BME280;45703;50.898;6.054;2023-02-28T06:16:20;101506.41;;;-1.69;83.43
59825;BME280;45703;50.898;6.054;2023-02-28T06:18:45;101505.91;;;-1.74;83.21
59825;BME280;45703;50.898;6.054;2023-02-28T06:21:12;101515.44;;;-1.73;83.54
59825;BME280;45703;50.898;6.054;2023-02-28T06:23:37;101516.06;;;-1.82;83.93
59825;BME280;45703;50.898;6.054;2023-02-28T06:26:03;101518.81;;;-1.83;84.45
59825;BME280;45703;50.898;6.054;2023-02-28T06:28:28;101525.59;;;-1.81;85.18
59825;BME280;45703;50.898;6.054;2023-02-28T06:30:54;101519.06;;;-1.86;84.37
59825;BME280;45703;50.898;6.054;2023-02-28T06:33:19;101524.47;;;-1.77;83.74
59825;BME280;45703;50.898;6.054;2023-02-28T06:35:47;101526.53;;;-1.82;85.15
59825;BME280;45703;50.898;6.054;2023-02-28T06:38:12;101518.66;;;-1.93;84.31
59825;BME280;45703;50.898;6.054;2023-02-28T06:40:38;101530.56;;;-1.89;84.03
59825;BME280;45703;50.898;6.054;2023-02-28T06:43:03;101540.09;;;-1.88;84.24
59825;BME280;45703;50.898;6.054;2023-02-28T06:45:29;101536.66;;;-1.88;84.48
59825;BME280;45703;50.898;6.054;2023-02-28T06:47:54;101547.00;;;-1.87;84.30
59825;BME280;45703;50.898;6.054;2023-02-28T06:50:20;101546.03;;;-1.86;83.98
59825;BME280;45703;50.898;6.054;2023-02-28T06:52:46;101551.91;;;-1.82;84.00
59825;BME280;45703;50.898;6.054;2023-02-28T06:55:12;101550.94;;;-1.81;83.45
59825;BME280;45703;50.898;6.054;2023-02-28T06:57:37;101552.09;;;-1.73;84.06
59825;BME280;45703;50.898;6.054;2023-02-28T07:00:08;101552.91;;;-1.72;83.39
59825;BME280;45703;50.898;6.054;2023-02-28T07:02:35;101546.84;;;-1.73;83.22
59825;BME280;45703;50.898;6.054;2023-02-28T07:05:01;101558.63;;;-1.67;83.28
59825;BME280;45703;50.898;6.054;2023-02-28T07:07:26;101560.44;;;-1.68;83.38
59825;BME280;45703;50.898;6.054;2023-02-28T07:09:52;101567.13;;;-1.64;83.99
59825;BME280;45703;50.898;6.054;2023-02-28T07:12:17;101561.66;;;-1.61;83.01
59825;BME280;45703;50.898;6.054;2023-02-28T07:14:42;101563.31;;;-1.60;82.66
59825;BME280;45703;50.898;6.054;2023-02-28T07:17:09;101563.69;;;-1.53;83.06
59825;BME280;45703;50.898;6.054;2023-02-28T07:19:37;101572.06;;;-1.48;83.37
59825;BME280;45703;50.898;6.054;2023-02-28T07:22:02;101565.75;;;-1.46;82.41
59825;BME280;45703;50.898;6.054;2023-02-28T07:24:28;101570.31;;;-1.37;82.33
59825;BME280;45703;50.898;6.054;2023-02-28T07:26:54;101577.00;;;-1.33;81.96
59825;BME280;45703;50.898;6.054;2023-02-28T07:29:20;101569.63;;;-1.28;82.25
59825;BME280;45703;50.898;6.054;2023-02-28T07:31:45;101578.09;;;-1.25;81.98
59825;BME280;45703;50.898;6.054;2023-02-28T07:34:12;101564.19;;;-1.25;82.67
59825;BME280;45703;50.898;6.054;2023-02-28T07:36:37;101570.88;;;-1.21;82.01
59825;BME280;45703;50.898;6.054;2023-02-28T07:39:03;101580.03;;;-1.16;82.05
59825;BME280;45703;50.898;6.054;2023-02-28T07:41:29;101571.47;;;-1.18;82.24
59825;BME280;45703;50.898;6.054;2023-02-28T07:43:55;101567.88;;;-1.17;82.47
59825;BME280;45703;50.898;6.054;2023-02-28T07:46:22;101558.03;;;-1.13;81.96
59825;BME280;45703;50.898;6.054;2023-02-28T07:48:47;101561.13;;;-1.08;81.90
59825;BME280;45703;50.898;6.054;2023-02-28T07:51:13;101557.34;;;-1.04;81.66
59825;BME280;45703;50.898;6.054;2023-02-28T07:53:39;101567.13;;;-0.95;81.93
59825;BME280;45703;50.898;6.054;2023-02-28T07:56:04;101562.25;;;-0.89;81.54
59825;BME280;45703;50.898;6.054;2023-02-28T07:58:30;101573.00;;;-0.81;81.33
59825;BME280;45703;50.898;6.054;2023-02-28T08:00:56;101570.94;;;-0.77;81.24
59825;BME280;45703;50.898;6.054;2023-02-28T08:03:22;101568.84;;;-0.72;81.07
59825;BME280;45703;50.898;6.054;2023-02-28T08:05:48;101571.00;;;-0.66;81.04
59825;BME280;45703;50.898;6.054;2023-02-28T08:08:15;101566.09;;;-0.60;81.13
59825;BME280;45703;50.898;6.054;2023-02-28T08:10:42;101563.94;;;-0.55;80.93
59825;BME280;45703;50.898;6.054;2023-02-28T08:13:07;101565.28;;;-0.49;80.61
59825;BME280;45703;50.898;6.054;2023-02-28T08:15:33;101573.13;;;-0.38;80.37
59825;BME280;45703;50.898;6.054;2023-02-28T08:17:58;101566.84;;;-0.36;80.06
59825;BME280;45703;50.898;6.054;2023-02-28T08:20:25;101571.47;;;-0.28;79.90
59825;BME280;45703;50.898;6.054;2023-02-28T08:22:51;101575.53;;;-0.24;79.81
59825;BME280;45703;50.898;6.054;2023-02-28T08:25:17;101571.72;;;-0.20;79.61
59825;BME280;45703;50.898;6.054;2023-02-28T08:27:43;101565.50;;;-0.08;78.93
59825;BME280;45703;50.898;6.054;2023-02-28T08:30:13;101572.66;;;0.00;78.92
59825;BME280;45703;50.898;6.054;2023-02-28T08:32:39;101583.38;;;0.08;78.83
59825;BME280;45703;50.898;6.054;2023-02-28T08:35:06;101582.88;;;0.14;78.55
59825;BME280;45703;50.898;6.054;2023-02-28T08:37:32;101575.47;;;0.19;78.17
59825;BME280;45703;50.898;6.054;2023-02-28T08:39:57;101575.72;;;0.27;77.82
59825;BME280;45703;50.898;6.054;2023-02-28T08:42:23;101569.97;;;0.33;77.40
59825;BME280;45703;50.898;6.054;2023-02-28T08:44:49;101578.75;;;0.43;77.32
59825;BME280;45703;50.898;6.054;2023-02-28T08:47:14;101577.41;;;0.49;76.97
59825;BME280;45703;50.898;6.054;2023-02-28T08:49:39;101575.38;;;0.52;76.62
59825;BME280;45703;50.898;6.054;2023-02-28T08:52:05;101570.31;;;0.60;76.74
59825;BME280;45703;50.898;6.054;2023-02-28T08:54:31;101568.16;;;0.65;76.21
59825;BME280;45703;50.898;6.054;2023-02-28T08:56:58;101577.91;;;0.74;76.57
59825;BME280;45703;50.898;6.054;2023-02-28T08:59:23;101575.75;;;0.79;76.02
59825;BME280;45703;50.898;6.054;2023-02-28T09:01:49;101570.25;;;0.82;75.81
59825;BME280;45703;50.898;6.054;2023-02-28T09:04:14;101571.16;;;0.92;75.03
59825;BME280;45703;50.898;6.054;2023-02-28T09:06:40;101573.72;;;1.03;74.29
59825;BME280;45703;50.898;6.054;2023-02-28T09:09:05;101572.63;;;1.06;74.18
59825;BME280;45703;50.898;6.054;2023-02-28T09:11:33;101577.94;;;1.15;74.32
59825;BME280;45703;50.898;6.054;2023-02-28T09:13:59;101580.50;;;1.26;72.66
59825;BME280;45703;50.898;6.054;2023-02-28T09:16:26;101580.25;;;1.29;72.11
59825;BME280;45703;50.898;6.054;2023-02-28T09:18:51;101576.16;;;1.36;71.57
59825;BME280;45703;50.898;6.054;2023-02-28T09:21:18;101564.84;;;1.45;72.39
59825;BME280;45703;50.898;6.054;2023-02-28T09:23:45;101556.69;;;1.48;71.78
59825;BME280;45703;50.898;6.054;2023-02-28T09:26:19;101559.63;;;1.54;72.55
59825;BME280;45703;50.898;6.054;2023-02-28T09:28:45;101546.06;;;1.59;71.95
59825;BME280;45703;50.898;6.054;2023-02-28T09:31:16;101554.13;;;1.67;71.80
59825;BME280;45703;50.898;6.054;2023-02-28T09:33:46;101554.97;;;1.77;71.39
59825;BME280;45703;50.898;6.054;2023-02-28T09:36:11;101549.47;;;1.80;72.43
59825;BME280;45703;50.898;6.054;2023-02-28T09:38:36;101569.47;;;1.92;70.97
59825;BME280;45703;50.898;6.054;2023-02-28T09:41:10;101547.88;;;1.98;70.82
59825;BME280;45703;50.898;6.054;2023-02-28T09:43:40;101544.00;;;2.02;70.92
59825;BME280;45703;50.898;6.054;2023-02-28T09:48:56;101540.25;;;2.14;69.28
59825;BME280;45703;50.898;6.054;2023-02-28T09:54:11;101547.94;;;2.36;69.00
59825;BME280;45703;50.898;6.054;2023-02-28T09:56:39;101549.06;;;2.43;67.70
59825;BME280;45703;50.898;6.054;2023-02-28T10:04:41;101545.88;;;2.58;67.36
59825;BME280;45703;50.898;6.054;2023-02-28T10:10:21;101545.75;;;2.69;67.35
59825;BME280;45703;50.898;6.054;2023-02-28T10:12:51;101546.28;;;2.73;65.31
59825;BME280;45703;50.898;6.054;2023-02-28T10:15:18;101542.38;;;2.77;65.16
59825;BME280;45703;50.898;6.054;2023-02-28T10:17:49;101547.94;;;2.83;64.20
59825;BME280;45703;50.898;6.054;2023-02-28T10:20:20;101550.69;;;2.91;66.64
59825;BME280;45703;50.898;6.054;2023-02-28T10:23:00;101549.31;;;2.87;65.33
59825;BME280;45703;50.898;6.054;2023-02-28T10:25:33;101544.22;;;2.85;62.53
59825;BME280;45703;50.898;6.054;2023-02-28T10:30:32;101538.09;;;2.94;65.50
59825;BME280;45703;50.898;6.054;2023-02-28T10:32:58;101540.84;;;3.02;64.50
59825;BME280;45703;50.898;6.054;2023-02-28T10:35:25;101551.09;;;3.15;64.89
59825;BME280;45703;50.898;6.054;2023-02-28T10:37:57;101546.63;;;3.25;62.08
59825;BME280;45703;50.898;6.054;2023-02-28T10:43:00;101547.53;;;3.52;65.41
59825;BME280;45703;50.898;6.054;2023-02-28T10:45:28;101531.78;;;3.60;63.34
59825;BME280;45703;50.898;6.054;2023-02-28T10:47:56;101535.22;;;3.70;64.48
59825;BME280;45703;50.898;6.054;2023-02-28T10:50:57;101547.13;;;3.74;64.14
59825;BME280;45703;50.898;6.054;2023-02-28T11:01:23;101538.25;;;3.75;64.21
59825;BME280;45703;50.898;6.054;2023-02-28T11:03:50;101517.13;;;3.75;63.42
59825;BME280;45703;50.898;6.054;2023-02-28T11:06:22;101522.66;;;3.82;62.87
59825;BME280;45703;50.898;6.054;2023-02-28T11:09:00;101521.53;;;3.84;64.38
59825;BME280;45703;50.898;6.054;2023-02-28T11:11:29;101518.91;;;3.84;63.67
59825;BME280;45703;50.898;6.054;2023-02-28T11:14:02;101520.28;;;3.88;62.42
59825;BME280;45703;50.898;6.054;2023-02-28T11:16:33;101520.94;;;3.90;61.29
59825;BME280;45703;50.898;6.054;2023-02-28T11:19:00;101522.06;;;3.88;62.04
59825;BME280;45703;50.898;6.054;2023-02-28T11:21:35;101521.25;;;3.87;58.12
59825;BME280;45703;50.898;6.054;2023-02-28T11:26:55;101514.97;;;3.88;61.35
59825;BME280;45703;50.898;6.054;2023-02-28T11:29:25;101515.66;;;3.90;62.32
59825;BME280;45703;50.898;6.054;2023-02-28T11:32:01;101510.78;;;3.95;62.93
59825;BME280;45703;50.898;6.054;2023-02-28T11:34:28;101514.78;;;3.99;61.30
59825;BME280;45703;50.898;6.054;2023-02-28T11:36:58;101509.03;;;4.04;60.69
59825;BME280;45703;50.898;6.054;2023-02-28T11:39:25;101510.25;;;4.09;62.04
59825;BME280;45703;50.898;6.054;2023-02-28T11:42:10;101511.63;;;4.13;62.94
59825;BME280;45703;50.898;6.054;2023-02-28T11:47:38;101508.75;;;4.24;59.90
59825;BME280;45703;50.898;6.054;2023-02-28T11:52:48;101510.50;;;4.33;59.06
59825;BME280;45703;50.898;6.054;2023-02-28T11:55:38;101483.84;;;4.26;61.75
59825;BME280;45703;50.898;6.054;2023-02-28T11:58:31;101505.63;;;4.38;58.01
59825;BME280;45703;50.898;6.054;2023-02-28T12:07:09;101493.63;;;4.69;59.18
59825;BME280;45703;50.898;6.054;2023-02-28T12:10:06;101503.31;;;4.78;60.99
59825;BME280;45703;50.898;6.054;2023-02-28T12:12:51;101501.88;;;4.83;60.26
59825;BME280;45703;50.898;6.054;2023-02-28T12:18:21;101493.66;;;4.94;57.99
59825;BME280;45703;50.898;6.054;2023-02-28T12:21:11;101499.19;;;5.01;55.99
59825;BME280;45703;50.898;6.054;2023-02-28T12:28:59;101483.63;;;4.98;55.57
59825;BME280;45703;50.898;6.054;2023-02-28T12:31:29;101488.59;;;5.01;55.92
59825;BME280;45703;50.898;6.054;2023-02-28T12:34:01;101485.28;;;4.99;57.21
59825;BME280;45703;50.898;6.054;2023-02-28T12:36:28;101489.22;;;4.95;57.08
59825;BME280;45703;50.898;6.054;2023-02-28T12:39:16;101479.28;;;4.89;58.03
59825;BME280;45703;50.898;6.054;2023-02-28T12:42:01;101478.38;;;4.80;57.87
59825;BME280;45703;50.898;6.054;2023-02-28T12:44:42;101475.50;;;4.74;57.61
59825;BME280;45703;50.898;6.054;2023-02-28T12:47:13;101473.09;;;4.63;55.76
59825;BME280;45703;50.898;6.054;2023-02-28T12:52:18;101468.53;;;4.73;55.69
59825;BME280;45703;50.898;6.054;2023-02-28T12:55:13;101468.59;;;4.81;57.87
59825;BME280;45703;50.898;6.054;2023-02-28T13:00:36;101460.66;;;4.81;55.11
59825;BME280;45703;50.898;6.054;2023-02-28T13:03:21;101464.81;;;4.83;55.91
59825;BME280;45703;50.898;6.054;2023-02-28T13:11:58;101449.41;;;4.79;58.35
59825;BME280;45703;50.898;6.054;2023-02-28T13:19:31;101448.34;;;4.89;58.26
59825;BME280;45703;50.898;6.054;2023-02-28T13:21:58;101434.97;;;4.91;57.92
59825;BME280;45703;50.898;6.054;2023-02-28T13:24:43;101446.88;;;4.95;58.56
59825;BME280;45703;50.898;6.054;2023-02-28T13:29:44;101437.91;;;4.88;54.81
59825;BME280;45703;50.898;6.054;2023-02-28T13:34:35;101438.59;;;4.90;54.62
59825;BME280;45703;50.898;6.054;2023-02-28T13:42:35;101440.25;;;4.91;54.00
59825;BME280;45703;50.898;6.054;2023-02-28T13:55:56;101430.38;;;5.01;56.84
59825;BME280;45703;50.898;6.054;2023-02-28T14:01:21;101425.09;;;5.01;56.81
59825;BME280;45703;50.898;6.054;2023-02-28T14:06:53;101424.47;;;5.07;57.53
59825;BME280;45703;50.898;6.054;2023-02-28T14:11:51;101424.16;;;5.10;57.04
59825;BME280;45703;50.898;6.054;2023-02-28T14:17:07;101414.59;;;5.17;56.80
59825;BME280;45703;50.898;6.054;2023-02-28T14:19:36;101415.56;;;5.16;56.42
59825;BME280;45703;50.898;6.054;2023-02-28T14:25:15;101407.00;;;5.22;57.73
59825;BME280;45703;50.898;6.054;2023-02-28T14:27:50;101402.22;;;5.25;57.59
59825;BME280;45703;50.898;6.054;2023-02-28T14:30:40;101400.38;;;5.26;58.25
59825;BME280;45703;50.898;6.054;2023-02-28T14:41:15;101397.41;;;5.29;56.73
59825;BME280;45703;50.898;6.054;2023-02-28T14:43:51;101390.28;;;5.21;54.62
59825;BME280;45703;50.898;6.054;2023-02-28T14:46:17;101386.34;;;5.25;55.81
59825;BME280;45703;50.898;6.054;2023-02-28T14:48:48;101391.97;;;5.22;55.04
59825;BME280;45703;50.898;6.054;2023-02-28T14:51:19;101390.28;;;5.21;55.84
59825;BME280;45703;50.898;6.054;2023-02-28T14:53:50;101385.31;;;5.18;55.05
59825;BME280;45703;50.898;6.054;2023-02-28T14:56:23;101380.50;;;5.14;53.06
59825;BME280;45703;50.898;6.054;2023-02-28T14:58:54;101383.00;;;5.15;51.19
59825;BME280;45703;50.898;6.054;2023-02-28T15:01:21;101388.44;;;5.14;54.57
59825;BME280;45703;50.898;6.054;2023-02-28T15:03:48;101388.78;;;5.19;54.73
59825;BME280;45703;50.898;6.054;2023-02-28T15:06:15;101387.78;;;5.20;56.36
59825;BME280;45703;50.898;6.054;2023-02-28T15:08:43;101391.44;;;5.19;56.65
59825;BME280;45703;50.898;6.054;2023-02-28T15:11:15;101381.81;;;5.18;56.49
59825;BME280;45703;50.898;6.054;2023-02-28T15:13:46;101381.03;;;5.17;56.07
59825;BME280;45703;50.898;6.054;2023-02-28T15:16:20;101387.13;;;5.18;57.30
59825;BME280;45703;50.898;6.054;2023-02-28T15:18:53;101385.16;;;5.20;56.49
59825;BME280;45703;50.898;6.054;2023-02-28T15:21:22;101381.16;;;5.16;56.44
59825;BME280;45703;50.898;6.054;2023-02-28T15:23:53;101373.00;;;5.09;56.16
59825;BME280;45703;50.898;6.054;2023-02-28T15:26:23;101377.16;;;5.12;55.54
59825;BME280;45703;50.898;6.054;2023-02-28T15:28:59;101364.94;;;5.11;57.94